Time;durP1;ratioP1;P1;durP2;ratioP2;P2;SDS_P1;SDS_P2;PMS_P1;PMS_P2;Temp;Humidity;BMP_temperature;BMP_pressure;BME280_temperature;BME280_humidity;BME280_pressure;Samples;Min_cycle;Max_cycle;Signal;HPM_P1;HPM_P2
2022/07/01 00:00:11;;;;;;;1.00;0.60;;;;;;;;;;4840982;29;20084;-77
2022/07/01 00:02:37;;;;;;;1.85;0.57;;;;;;;;;;4837375;29;20046;-76
2022/07/01 00:05:03;;;;;;;4.97;1.30;;;;;;;;;;4839879;29;20133;-76
2022/07/01 00:07:28;;;;;;;5.72;1.05;;;;;;;;;;4839680;29;20049;-78
2022/07/01 00:09:53;;;;;;;3.80;1.00;;;;;;;;;;4844539;29;20110;-76
2022/07/01 00:12:19;;;;;;;4.25;1.00;;;;;;;;;;4839519;29;20045;-77
2022/07/01 00:14:44;;;;;;;1.77;0.60;;;;;;;;;;4840054;29;20056;-78
2022/07/01 00:17:10;;;;;;;1.58;0.80;;;;;;;;;;4839304;29;20071;-78
2022/07/01 00:19:35;;;;;;;1.25;0.70;;;;;;;;;;4837740;29;20041;-75
2022/07/01 00:22:01;;;;;;;0.82;0.57;;;;;;;;;;4839115;29;20030;-78
2022/07/01 00:24:27;;;;;;;1.60;0.60;;;;;;;;;;4840910;29;20128;-76
2022/07/01 00:26:54;;;;;;;1.85;0.50;;;;;;;;;;4818608;29;20050;-77
2022/07/01 00:29:20;;;;;;;0.40;0.40;;;;;;;;;;4824183;29;20058;-76
2022/07/01 00:31:45;;;;;;;3.40;0.70;;;;;;;;;;4843177;29;20089;-78
2022/07/01 00:34:10;;;;;;;0.73;0.50;;;;;;;;;;4844039;29;20052;-76
2022/07/01 00:36:36;;;;;;;0.32;0.32;;;;;;;;;;4844672;29;20044;-79
2022/07/01 00:39:01;;;;;;;1.33;0.57;;;;;;;;;;4822684;29;20038;-78
2022/07/01 00:41:27;;;;;;;3.28;0.50;;;;;;;;;;4839008;29;21068;-77
2022/07/01 00:43:53;;;;;;;0.47;0.40;;;;;;;;;;4841589;29;20117;-76
2022/07/01 00:46:19;;;;;;;1.25;0.50;;;;;;;;;;4841242;29;20054;-76
2022/07/01 00:48:45;;;;;;;2.55;0.57;;;;;;;;;;4840506;29;20447;-78
2022/07/01 00:51:10;;;;;;;1.50;0.52;;;;;;;;;;4840046;29;20042;-76
2022/07/01 00:53:36;;;;;;;1.33;0.50;;;;;;;;;;4836198;29;20518;-77
2022/07/01 00:56:02;;;;;;;1.02;0.40;;;;;;;;;;4837196;29;20711;-79
2022/07/01 00:58:28;;;;;;;0.20;0.20;;;;;;;;;;4839216;29;20049;-78
2022/07/01 01:00:55;;;;;;;1.48;0.50;;;;;;;;;;4837147;29;20050;-77
2022/07/01 01:03:21;;;;;;;2.00;0.57;;;;;;;;;;4835895;29;20542;-78
2022/07/01 01:05:46;;;;;;;1.58;0.45;;;;;;;;;;4835561;29;20174;-78
2022/07/01 01:08:12;;;;;;;2.05;0.50;;;;;;;;;;4835293;29;20053;-78
2022/07/01 01:10:38;;;;;;;2.33;0.50;;;;;;;;;;4837193;29;20106;-76
2022/07/01 01:13:04;;;;;;;1.02;0.57;;;;;;;;;;4835344;29;20575;-76
2022/07/01 01:15:30;;;;;;;3.85;0.47;;;;;;;;;;4839204;29;20081;-76
2022/07/01 01:17:56;;;;;;;2.42;0.40;;;;;;;;;;4838837;29;20050;-78
2022/07/01 01:20:21;;;;;;;1.58;0.50;;;;;;;;;;4840342;29;20045;-76
2022/07/01 01:22:48;;;;;;;1.08;0.50;;;;;;;;;;4834877;29;20038;-74
2022/07/01 01:25:15;;;;;;;0.93;0.40;;;;;;;;;;4837173;29;20360;-78
2022/07/01 01:27:40;;;;;;;1.60;0.40;;;;;;;;;;4830698;29;20038;-76
2022/07/01 01:30:08;;;;;;;0.60;0.28;;;;;;;;;;4843501;29;20085;-76
2022/07/01 01:32:34;;;;;;;2.05;0.47;;;;;;;;;;4842167;29;20110;-76
2022/07/01 01:34:59;;;;;;;1.00;0.30;;;;;;;;;;4827036;29;20158;-78
2022/07/01 01:37:25;;;;;;;0.52;0.30;;;;;;;;;;4843185;29;20653;-77
2022/07/01 01:39:50;;;;;;;0.40;0.40;;;;;;;;;;4846968;29;20114;-77
2022/07/01 01:42:16;;;;;;;3.22;0.20;;;;;;;;;;4847875;29;20053;-78
2022/07/01 01:44:41;;;;;;;2.90;0.40;;;;;;;;;;4831669;29;20045;-76
2022/07/01 01:47:07;;;;;;;0.93;0.30;;;;;;;;;;4845719;29;20042;-75
2022/07/01 01:49:32;;;;;;;0.38;0.30;;;;;;;;;;4828181;29;20153;-77
2022/07/01 01:51:59;;;;;;;0.20;0.20;;;;;;;;;;4840040;29;20029;-76
2022/07/01 01:54:25;;;;;;;0.68;0.47;;;;;;;;;;4840980;29;20306;-76
2022/07/01 01:56:50;;;;;;;1.88;0.30;;;;;;;;;;4840990;29;20057;-76
2022/07/01 01:59:16;;;;;;;0.45;0.30;;;;;;;;;;4824951;29;20045;-73
2022/07/01 02:01:41;;;;;;;0.38;0.20;;;;;;;;;;4844141;29;20064;-75
2022/07/01 02:04:06;;;;;;;0.43;0.30;;;;;;;;;;4841754;29;20386;-77
2022/07/01 02:06:32;;;;;;;0.30;0.20;;;;;;;;;;4846215;29;20068;-78
2022/07/01 02:08:57;;;;;;;1.88;0.40;;;;;;;;;;4838939;29;20399;-75
2022/07/01 02:11:23;;;;;;;0.40;0.30;;;;;;;;;;4841499;29;20049;-76
2022/07/01 02:13:48;;;;;;;2.15;0.40;;;;;;;;;;4838708;29;20129;-77
2022/07/01 02:16:14;;;;;;;0.57;0.40;;;;;;;;;;4841418;29;20044;-75
2022/07/01 02:18:39;;;;;;;2.10;0.40;;;;;;;;;;4840881;29;20117;-76
2022/07/01 02:21:04;;;;;;;1.48;0.30;;;;;;;;;;4842887;29;20049;-78
2022/07/01 02:23:30;;;;;;;1.63;0.50;;;;;;;;;;4840274;29;20411;-76
2022/07/01 02:25:55;;;;;;;2.85;0.50;;;;;;;;;;4837138;29;20042;-76
2022/07/01 02:28:21;;;;;;;1.00;0.57;;;;;;;;;;4842846;29;20038;-78
2022/07/01 02:30:46;;;;;;;0.30;0.30;;;;;;;;;;4843120;29;20121;-76
2022/07/01 02:33:12;;;;;;;0.75;0.30;;;;;;;;;;4840729;29;20065;-77
2022/07/01 02:35:39;;;;;;;0.30;0.30;;;;;;;;;;4845147;29;20042;-75
2022/07/01 02:38:05;;;;;;;0.30;0.30;;;;;;;;;;4831865;29;20448;-78
2022/07/01 02:40:33;;;;;;;0.60;0.22;;;;;;;;;;4845764;29;20037;-77
2022/07/01 02:42:59;;;;;;;0.60;0.30;;;;;;;;;;4846827;29;20025;-77
2022/07/01 02:45:25;;;;;;;1.65;0.47;;;;;;;;;;4844378;29;20041;-76
2022/07/01 02:47:50;;;;;;;0.60;0.30;;;;;;;;;;4847992;29;20129;-78
2022/07/01 02:50:18;;;;;;;0.40;0.32;;;;;;;;;;4830227;29;20042;-76
2022/07/01 02:52:45;;;;;;;9.52;0.47;;;;;;;;;;4845214;29;20487;-77
2022/07/01 02:55:12;;;;;;;1.85;0.40;;;;;;;;;;4826513;29;20042;-77
2022/07/01 02:57:39;;;;;;;0.40;0.32;;;;;;;;;;4846202;29;20398;-75
2022/07/01 03:00:06;;;;;;;1.08;0.30;;;;;;;;;;4845265;29;20074;-74
2022/07/01 03:02:32;;;;;;;0.68;0.20;;;;;;;;;;4823891;29;20140;-75
2022/07/01 03:04:58;;;;;;;0.75;0.38;;;;;;;;;;4840893;29;20437;-74
2022/07/01 03:07:23;;;;;;;2.08;0.28;;;;;;;;;;4842253;29;20117;-75
2022/07/01 03:09:49;;;;;;;0.52;0.20;;;;;;;;;;4826423;29;20030;-73
2022/07/01 03:15:36;;;;;;;0.70;0.32;;;;;;;;;;4840889;29;20144;-73
2022/07/01 03:18:02;;;;;;;0.25;0.20;;;;;;;;;;4840768;29;20101;-74
2022/07/01 03:20:28;;;;;;;0.30;0.30;;;;;;;;;;4840820;29;20089;-73
2022/07/01 03:22:53;;;;;;;0.40;0.30;;;;;;;;;;4841467;29;20046;-75
2022/07/01 03:25:18;;;;;;;2.20;0.20;;;;;;;;;;4842558;29;20038;-74
2022/07/01 03:27:47;;;;;;;2.05;0.32;;;;;;;;;;4844001;29;20030;-74
2022/07/01 03:30:14;;;;;;;1.48;0.50;;;;;;;;;;4841264;29;20460;-74
2022/07/01 03:32:40;;;;;;;0.40;0.28;;;;;;;;;;4841957;29;20038;-74
2022/07/01 03:35:35;;;;;;;0.20;0.20;;;;;;;;;;4825885;29;20395;-73
2022/07/01 03:37:51;;;;;;;1.17;0.40;;;;;;;;;;4838839;29;20074;-74
2022/07/01 03:40:16;;;;;;;1.30;0.32;;;;;;;;;;4836918;29;20037;-74
2022/07/01 03:42:41;;;;;;;0.60;0.32;;;;;;;;;;4841980;29;20072;-73
2022/07/01 03:45:07;;;;;;;0.30;0.30;;;;;;;;;;4838909;29;20042;-75
2022/07/01 03:47:33;;;;;;;3.55;0.45;;;;;;;;;;4838979;29;20034;-74
2022/07/01 03:49:58;;;;;;;0.82;0.40;;;;;;;;;;4841973;29;20480;-75
2022/07/01 03:52:23;;;;;;;6.40;4.18;;;;;;;;;;4841784;29;20087;-73
2022/07/01 03:54:49;;;;;;;1.42;0.50;;;;;;;;;;4838355;29;20065;-73
2022/07/01 03:57:14;;;;;;;0.90;0.52;;;;;;;;;;4839786;29;20392;-74
2022/07/01 03:59:40;;;;;;;1.35;0.47;;;;;;;;;;4841533;29;20046;-73
2022/07/01 04:02:06;;;;;;;1.27;0.40;;;;;;;;;;4836306;29;20106;-73
2022/07/01 04:04:33;;;;;;;0.85;0.50;;;;;;;;;;4840732;29;20037;-74
2022/07/01 04:07:02;;;;;;;0.50;0.30;;;;;;;;;;4839319;29;20106;-74
2022/07/01 04:09:30;;;;;;;2.40;0.50;;;;;;;;;;4840942;29;20566;-74
2022/07/01 04:11:56;;;;;;;1.08;0.40;;;;;;;;;;4839290;29;20042;-75
2022/07/01 04:14:24;;;;;;;1.33;0.65;;;;;;;;;;4839289;29;20034;-74
2022/07/01 04:16:49;;;;;;;0.60;0.43;;;;;;;;;;4842836;29;20046;-75
2022/07/01 04:19:15;;;;;;;0.82;0.50;;;;;;;;;;4840372;29;20485;-73
2022/07/01 04:24:24;;;;;;;0.40;0.40;;;;;;;;;;4844141;29;20121;-75
2022/07/01 04:26:51;;;;;;;0.43;0.43;;;;;;;;;;4841014;29;20079;-73
2022/07/01 04:29:17;;;;;;;2.17;0.60;;;;;;;;;;4839359;29;20050;-73
2022/07/01 04:31:42;;;;;;;1.48;0.57;;;;;;;;;;4839226;29;20052;-74
2022/07/01 04:34:08;;;;;;;0.93;0.40;;;;;;;;;;4846361;29;20025;-74
2022/07/01 04:36:34;;;;;;;1.17;0.47;;;;;;;;;;4846044;29;20082;-73
2022/07/01 04:39:01;;;;;;;6.32;1.25;;;;;;;;;;4844248;29;20030;-74
2022/07/01 04:44:10;;;;;;;0.77;0.40;;;;;;;;;;4846089;29;20110;-73
2022/07/01 04:46:36;;;;;;;0.40;0.40;;;;;;;;;;4844558;29;20500;-74
2022/07/01 04:49:02;;;;;;;0.80;0.40;;;;;;;;;;4844720;29;20466;-74
2022/07/01 04:51:28;;;;;;;1.10;0.60;;;;;;;;;;4842640;29;20048;-72
2022/07/01 04:53:53;;;;;;;2.30;0.40;;;;;;;;;;4844636;29;20069;-74
2022/07/01 04:56:19;;;;;;;2.53;0.52;;;;;;;;;;4838376;29;20076;-73
2022/07/01 04:58:44;;;;;;;1.40;0.32;;;;;;;;;;4843642;29;20133;-74
2022/07/01 05:01:10;;;;;;;2.45;0.50;;;;;;;;;;4839007;29;20055;-73
2022/07/01 05:03:35;;;;;;;1.08;0.60;;;;;;;;;;4838524;29;20034;-74
2022/07/01 05:06:01;;;;;;;2.85;0.50;;;;;;;;;;4842392;29;20041;-74
2022/07/01 05:08:26;;;;;;;1.20;0.88;;;;;;;;;;4839674;29;20049;-74
2022/07/01 05:10:52;;;;;;;2.92;0.68;;;;;;;;;;4840357;29;20097;-74
2022/07/01 05:13:17;;;;;;;3.28;0.88;;;;;;;;;;4839232;29;20046;-74
2022/07/01 05:15:43;;;;;;;0.57;0.50;;;;;;;;;;4840407;29;20044;-73
2022/07/01 05:23:36;;;;;;;1.50;0.38;;;;;;;;;;4842166;29;20097;-74
2022/07/01 05:26:03;;;;;;;5.55;0.50;;;;;;;;;;4841002;29;20037;-73
2022/07/01 05:28:28;;;;;;;0.57;0.30;;;;;;;;;;4839881;29;20046;-73
2022/07/01 05:30:54;;;;;;;0.85;0.40;;;;;;;;;;4839851;29;20664;-73
2022/07/01 05:33:21;;;;;;;1.30;0.32;;;;;;;;;;4839314;29;20533;-73
2022/07/01 05:35:47;;;;;;;0.82;0.38;;;;;;;;;;4844152;29;20418;-73
2022/07/01 05:38:12;;;;;;;0.80;0.47;;;;;;;;;;4836520;29;20376;-75
2022/07/01 05:40:38;;;;;;;0.98;0.43;;;;;;;;;;4842400;29;20066;-74
2022/07/01 05:43:03;;;;;;;1.75;0.50;;;;;;;;;;4840581;29;20033;-74
2022/07/01 05:45:29;;;;;;;0.45;0.38;;;;;;;;;;4837945;29;20041;-74
2022/07/01 05:47:54;;;;;;;3.90;0.50;;;;;;;;;;4837243;29;20050;-74
2022/07/01 05:50:20;;;;;;;5.30;0.82;;;;;;;;;;4840900;29;20047;-74
2022/07/01 05:52:46;;;;;;;1.92;0.50;;;;;;;;;;4836252;29;20057;-74
2022/07/01 05:55:11;;;;;;;3.15;0.60;;;;;;;;;;4834084;29;20486;-74
2022/07/01 05:57:37;;;;;;;1.67;0.70;;;;;;;;;;4818647;29;20033;-74
2022/07/01 06:00:04;;;;;;;1.77;0.47;;;;;;;;;;4820512;29;20054;-74
2022/07/01 06:02:29;;;;;;;1.50;0.73;;;;;;;;;;4834013;29;20048;-73
2022/07/01 06:04:55;;;;;;;2.28;0.60;;;;;;;;;;4836057;29;20038;-75
2022/07/01 06:07:20;;;;;;;1.42;0.68;;;;;;;;;;4840577;29;20106;-74
2022/07/01 06:09:46;;;;;;;1.63;0.60;;;;;;;;;;4841417;29;20036;-75
2022/07/01 06:12:11;;;;;;;1.95;0.65;;;;;;;;;;4838632;29;20495;-74
2022/07/01 06:14:37;;;;;;;3.33;0.75;;;;;;;;;;4835046;29;20054;-73
2022/07/01 06:17:04;;;;;;;3.55;0.65;;;;;;;;;;4842056;29;20056;-74
2022/07/01 06:19:29;;;;;;;1.58;0.68;;;;;;;;;;4847438;29;20038;-73
2022/07/01 06:21:54;;;;;;;1.23;0.70;;;;;;;;;;4849202;29;20065;-73
2022/07/01 06:24:20;;;;;;;3.05;0.90;;;;;;;;;;4839636;29;20084;-73
2022/07/01 06:26:46;;;;;;;3.38;0.75;;;;;;;;;;4841720;29;20117;-73
2022/07/01 06:29:13;;;;;;;2.22;0.60;;;;;;;;;;4837929;29;20411;-72
2022/07/01 06:31:38;;;;;;;0.75;0.60;;;;;;;;;;4841368;29;20133;-74
2022/07/01 06:34:05;;;;;;;1.00;0.70;;;;;;;;;;4847654;29;20112;-73
2022/07/01 06:36:31;;;;;;;1.88;0.80;;;;;;;;;;4844298;29;20030;-73
2022/07/01 06:38:56;;;;;;;1.80;0.75;;;;;;;;;;4845524;29;20067;-73
2022/07/01 06:41:27;;;;;;;2.47;0.70;;;;;;;;;;4841839;29;20053;-73
2022/07/01 06:43:58;;;;;;;2.65;1.25;;;;;;;;;;4841070;29;20146;-72
2022/07/01 06:46:24;;;;;;;1.60;0.68;;;;;;;;;;4823490;29;20042;-73
2022/07/01 06:48:50;;;;;;;1.95;0.90;;;;;;;;;;4846901;29;20038;-71
2022/07/01 06:51:16;;;;;;;1.98;0.75;;;;;;;;;;4840903;29;20044;-73
2022/07/01 06:53:42;;;;;;;5.65;1.10;;;;;;;;;;4846990;29;20077;-72
2022/07/01 06:56:08;;;;;;;1.08;0.65;;;;;;;;;;4844811;29;20030;-74
2022/07/01 06:58:33;;;;;;;0.88;0.70;;;;;;;;;;4843907;29;20101;-73
2022/07/01 07:00:59;;;;;;;2.15;0.90;;;;;;;;;;4841007;29;20041;-73
2022/07/01 07:03:24;;;;;;;0.60;0.50;;;;;;;;;;4844647;29;20942;-73
2022/07/01 07:05:49;;;;;;;2.05;0.85;;;;;;;;;;4841224;29;20129;-73
2022/07/01 07:08:15;;;;;;;1.77;0.57;;;;;;;;;;4837407;29;20512;-74
2022/07/01 07:10:40;;;;;;;2.33;0.68;;;;;;;;;;4839271;29;20085;-73
2022/07/01 07:13:06;;;;;;;4.78;0.80;;;;;;;;;;4838040;29;21092;-74
2022/07/01 07:15:31;;;;;;;0.80;0.80;;;;;;;;;;4840650;29;20034;-74
2022/07/01 07:17:57;;;;;;;1.35;0.80;;;;;;;;;;4841487;29;20038;-73
2022/07/01 07:20:24;;;;;;;3.83;0.73;;;;;;;;;;4841355;29;20069;-73
2022/07/01 07:22:49;;;;;;;1.55;0.60;;;;;;;;;;4841522;29;20042;-73
2022/07/01 07:25:15;;;;;;;1.60;0.70;;;;;;;;;;4840699;29;20042;-73
2022/07/01 07:27:47;;;;;;;3.38;0.80;;;;;;;;;;4839912;29;20030;-74
2022/07/01 07:30:13;;;;;;;2.85;0.80;;;;;;;;;;4822797;29;20178;-73
2022/07/01 07:32:39;;;;;;;2.90;1.08;;;;;;;;;;4839079;29;20093;-73
2022/07/01 07:35:06;;;;;;;1.00;0.68;;;;;;;;;;4838368;29;20038;-73
2022/07/01 07:37:32;;;;;;;2.85;0.80;;;;;;;;;;4842627;29;20106;-73
2022/07/01 07:39:58;;;;;;;1.83;0.90;;;;;;;;;;4839056;29;20033;-75
2022/07/01 07:42:23;;;;;;;2.25;0.80;;;;;;;;;;4840360;29;20045;-73
2022/07/01 07:44:48;;;;;;;1.67;0.90;;;;;;;;;;4834926;29;20499;-74
2022/07/01 07:47:14;;;;;;;1.48;0.80;;;;;;;;;;4843073;29;20562;-73
2022/07/01 07:49:39;;;;;;;1.67;0.70;;;;;;;;;;4835973;29;20050;-73
2022/07/01 07:52:05;;;;;;;4.18;0.80;;;;;;;;;;4839171;29;20044;-73
2022/07/01 07:54:30;;;;;;;8.90;5.60;;;;;;;;;;4842027;29;20148;-73
2022/07/01 07:56:56;;;;;;;3.70;1.50;;;;;;;;;;4837841;29;20045;-72
2022/07/01 07:59:21;;;;;;;1.17;0.60;;;;;;;;;;4838824;29;20066;-72
2022/07/01 08:01:46;;;;;;;2.60;0.98;;;;;;;;;;4837113;29;20133;-73
2022/07/01 08:04:12;;;;;;;1.48;0.80;;;;;;;;;;4837825;29;20041;-74
2022/07/01 08:06:37;;;;;;;2.13;0.70;;;;;;;;;;4839501;29;20025;-74
2022/07/01 08:09:03;;;;;;;3.92;0.82;;;;;;;;;;4842865;29;20038;-73
2022/07/01 08:11:29;;;;;;;2.80;0.65;;;;;;;;;;4844674;29;20041;-73
2022/07/01 08:13:54;;;;;;;2.42;0.98;;;;;;;;;;4835893;29;20463;-74
2022/07/01 08:16:20;;;;;;;3.70;0.77;;;;;;;;;;4840558;29;20069;-74
2022/07/01 08:18:46;;;;;;;1.92;0.70;;;;;;;;;;4841304;29;20040;-74
2022/07/01 08:21:11;;;;;;;3.08;1.00;;;;;;;;;;4834087;29;20315;-72
2022/07/01 08:23:36;;;;;;;2.35;0.68;;;;;;;;;;4836049;29;20049;-73
2022/07/01 08:26:02;;;;;;;3.13;0.80;;;;;;;;;;4835603;29;20117;-75
2022/07/01 08:28:27;;;;;;;3.75;0.95;;;;;;;;;;4836244;29;20417;-74
2022/07/01 08:30:53;;;;;;;2.20;0.70;;;;;;;;;;4840140;29;20026;-73
2022/07/01 08:33:18;;;;;;;3.10;0.73;;;;;;;;;;4844182;29;20041;-73
2022/07/01 08:35:43;;;;;;;1.75;0.80;;;;;;;;;;4839260;29;20498;-74
2022/07/01 08:38:09;;;;;;;4.93;0.90;;;;;;;;;;4841701;29;20034;-73
2022/07/01 08:40:34;;;;;;;3.17;0.80;;;;;;;;;;4842254;29;20074;-74
2022/07/01 08:43:05;;;;;;;1.67;0.80;;;;;;;;;;4846407;29;20501;-74
2022/07/01 08:45:35;;;;;;;2.50;0.70;;;;;;;;;;4840566;29;20021;-73
2022/07/01 08:48:01;;;;;;;1.25;0.65;;;;;;;;;;4845693;29;20140;-74
2022/07/01 08:50:31;;;;;;;1.17;0.70;;;;;;;;;;4838250;29;20125;-73
2022/07/01 08:52:57;;;;;;;3.80;0.98;;;;;;;;;;4840903;29;20109;-73
2022/07/01 08:55:23;;;;;;;1.42;0.73;;;;;;;;;;4842804;29;20120;-73
2022/07/01 08:57:49;;;;;;;4.57;0.75;;;;;;;;;;4842857;29;20548;-73
2022/07/01 09:00:16;;;;;;;1.08;0.60;;;;;;;;;;4841735;29;20266;-73
2022/07/01 09:02:56;;;;;;;3.65;0.90;;;;;;;;;;4841623;29;20049;-73
2022/07/01 09:05:23;;;;;;;1.63;0.60;;;;;;;;;;4836676;29;20050;-73
2022/07/01 09:07:54;;;;;;;1.60;0.65;;;;;;;;;;4835465;29;20070;-72
2022/07/01 09:10:19;;;;;;;3.25;0.77;;;;;;;;;;4841279;29;20038;-72
2022/07/01 09:12:46;;;;;;;3.20;0.70;;;;;;;;;;4840436;29;20390;-75
2022/07/01 09:15:25;;;;;;;1.30;0.70;;;;;;;;;;4842173;29;20495;-73
2022/07/01 09:17:56;;;;;;;1.50;0.70;;;;;;;;;;4841172;29;20041;-73
2022/07/01 09:20:32;;;;;;;1.55;1.00;;;;;;;;;;4835423;29;20046;-73
2022/07/01 09:23:06;;;;;;;1.40;0.60;;;;;;;;;;4834066;29;20388;-73
2022/07/01 09:25:43;;;;;;;3.03;0.75;;;;;;;;;;4839044;29;20042;-70
2022/07/01 09:28:12;;;;;;;1.10;0.80;;;;;;;;;;4837846;29;20049;-71
2022/07/01 09:30:38;;;;;;;2.70;0.80;;;;;;;;;;4840388;29;20025;-73
2022/07/01 09:33:15;;;;;;;2.13;0.60;;;;;;;;;;4836958;29;20068;-73
2022/07/01 09:35:41;;;;;;;1.27;0.57;;;;;;;;;;4840928;29;20511;-73
2022/07/01 09:38:11;;;;;;;4.75;0.80;;;;;;;;;;4838012;29;20037;-73
2022/07/01 09:40:58;;;;;;;0.75;0.60;;;;;;;;;;4834221;29;20130;-73
2022/07/01 09:43:30;;;;;;;0.70;0.57;;;;;;;;;;4838192;29;20034;-72
2022/07/01 09:46:04;;;;;;;1.25;0.63;;;;;;;;;;4836095;29;20049;-73
2022/07/01 09:48:32;;;;;;;3.05;0.63;;;;;;;;;;4838956;29;20049;-74
2022/07/01 09:50:58;;;;;;;1.10;0.60;;;;;;;;;;4839172;29;20490;-73
2022/07/01 09:53:24;;;;;;;2.13;0.70;;;;;;;;;;4840854;29;20056;-72
2022/07/01 09:55:49;;;;;;;2.08;0.80;;;;;;;;;;4842608;29;20069;-72
2022/07/01 09:58:15;;;;;;;1.10;0.60;;;;;;;;;;4844750;29;20154;-73
2022/07/01 10:00:41;;;;;;;1.67;0.47;;;;;;;;;;4838286;29;20474;-74
2022/07/01 10:03:07;;;;;;;1.63;0.50;;;;;;;;;;4840021;29;20590;-74
2022/07/01 10:05:39;;;;;;;2.05;0.60;;;;;;;;;;4839708;29;20073;-73
2022/07/01 10:08:34;;;;;;;;;;;;;;;;;;4840375;29;20049;-72
2022/07/01 10:11:37;;;;;;;2.58;0.60;;;;;;;;;;4788327;29;20327;-73
2022/07/01 10:14:07;;;;;;;2.28;0.93;;;;;;;;;;4837646;29;20040;-73
2022/07/01 10:16:36;;;;;;;1.63;0.50;;;;;;;;;;4842716;29;20141;-72
2022/07/01 10:19:20;;;;;;;1.92;0.85;;;;;;;;;;4841291;29;20418;-73
2022/07/01 10:21:46;;;;;;;1.23;0.70;;;;;;;;;;4842336;29;20086;-73
2022/07/01 10:24:16;;;;;;;1.65;0.90;;;;;;;;;;4839740;29;20153;-73
2022/07/01 10:26:42;;;;;;;2.17;0.60;;;;;;;;;;4839263;29;20120;-74
2022/07/01 10:29:28;;;;;;;0.45;0.40;;;;;;;;;;4835977;29;20034;-73
2022/07/01 10:31:54;;;;;;;2.15;0.80;;;;;;;;;;4841457;29;20046;-73
2022/07/01 10:34:23;;;;;;;2.28;0.60;;;;;;;;;;4841729;29;20058;-73
2022/07/01 10:37:01;;;;;;;2.97;0.80;;;;;;;;;;4840541;29;20026;-73
2022/07/01 10:39:27;;;;;;;0.82;0.47;;;;;;;;;;4843561;29;20046;-73
2022/07/01 10:41:52;;;;;;;2.00;0.70;;;;;;;;;;4842757;29;20060;-70
2022/07/01 10:44:21;;;;;;;1.00;0.50;;;;;;;;;;4845811;29;20054;-73
2022/07/01 10:47:01;;;;;;;1.35;0.57;;;;;;;;;;4841588;29;20034;-72
2022/07/01 10:49:35;;;;;;;0.70;0.52;;;;;;;;;;4843102;29;20072;-73
2022/07/01 10:52:05;;;;;;;2.58;0.60;;;;;;;;;;4845269;29;20698;-74
2022/07/01 10:54:36;;;;;;;1.73;0.70;;;;;;;;;;4842787;29;20046;-72
2022/07/01 10:57:19;;;;;;;1.30;0.63;;;;;;;;;;4836937;29;20042;-74
2022/07/01 11:00:00;;;;;;;1.17;0.70;;;;;;;;;;4837013;29;20042;-74
2022/07/01 11:02:32;;;;;;;1.15;0.50;;;;;;;;;;4834001;29;20996;-73
2022/07/01 11:05:18;;;;;;;2.17;0.68;;;;;;;;;;4835318;29;20077;-73
2022/07/01 11:07:45;;;;;;;1.80;0.65;;;;;;;;;;4821289;29;20148;-73
2022/07/01 11:10:13;;;;;;;4.05;1.00;;;;;;;;;;4839089;29;20085;-73
2022/07/01 11:12:40;;;;;;;1.63;0.60;;;;;;;;;;4838432;29;20436;-74
2022/07/01 11:15:06;;;;;;;2.55;0.85;;;;;;;;;;4837645;29;20042;-72
2022/07/01 11:17:33;;;;;;;3.22;0.70;;;;;;;;;;4839373;29;20526;-75
2022/07/01 11:20:02;;;;;;;1.98;0.55;;;;;;;;;;4826360;29;20034;-73
2022/07/01 11:22:30;;;;;;;1.25;0.52;;;;;;;;;;4837888;29;20068;-72
2022/07/01 11:25:01;;;;;;;0.93;0.57;;;;;;;;;;4841274;29;21096;-74
2022/07/01 11:27:28;;;;;;;1.17;0.60;;;;;;;;;;4839607;29;20109;-73
2022/07/01 11:29:58;;;;;;;1.15;0.50;;;;;;;;;;4838145;29;20633;-73
2022/07/01 11:32:34;;;;;;;2.67;0.60;;;;;;;;;;4835514;29;20037;-73
2022/07/01 11:35:01;;;;;;;0.30;0.30;;;;;;;;;;4841413;29;20475;-74
2022/07/01 11:40:17;;;;;;;1.60;0.70;;;;;;;;;;4834283;29;20090;-72
2022/07/01 11:42:44;;;;;;;1.38;0.40;;;;;;;;;;4834772;29;20495;-74
2022/07/01 11:45:21;;;;;;;2.60;0.80;;;;;;;;;;4836002;29;20136;-73
2022/07/01 11:47:46;;;;;;;1.00;0.65;;;;;;;;;;4835777;29;20174;-72
2022/07/01 11:50:14;;;;;;;0.85;0.50;;;;;;;;;;4843205;29;20099;-72
2022/07/01 11:52:39;;;;;;;0.50;0.50;;;;;;;;;;4834436;29;20049;-73
2022/07/01 11:55:05;;;;;;;2.53;0.60;;;;;;;;;;4833903;29;20042;-75
2022/07/01 11:57:31;;;;;;;3.75;0.60;;;;;;;;;;4836339;29;20427;-72
2022/07/01 11:59:56;;;;;;;1.35;0.50;;;;;;;;;;4835337;29;20050;-74
2022/07/01 12:02:23;;;;;;;4.00;0.73;;;;;;;;;;4834033;29;20047;-73
2022/07/01 12:04:50;;;;;;;1.85;0.30;;;;;;;;;;4832789;29;20450;-72
2022/07/01 12:07:18;;;;;;;1.65;0.52;;;;;;;;;;4835487;29;20033;-73
2022/07/01 12:09:44;;;;;;;2.63;0.60;;;;;;;;;;4844008;29;20487;-74
2022/07/01 12:12:18;;;;;;;1.65;0.80;;;;;;;;;;4838934;29;20086;-74
2022/07/01 12:14:51;;;;;;;1.05;0.57;;;;;;;;;;4837754;29;20041;-74
2022/07/01 12:17:16;;;;;;;0.45;0.30;;;;;;;;;;4835822;29;20390;-73
2022/07/01 12:19:44;;;;;;;1.02;0.57;;;;;;;;;;4838575;29;20515;-75
2022/07/01 12:22:18;;;;;;;0.90;0.30;;;;;;;;;;4835276;29;20031;-74
2022/07/01 12:24:45;;;;;;;0.88;0.70;;;;;;;;;;4837596;29;20567;-74
2022/07/01 12:27:11;;;;;;;1.02;0.57;;;;;;;;;;4831655;29;20045;-74
2022/07/01 12:29:45;;;;;;;0.82;0.60;;;;;;;;;;4837727;29;20046;-73
2022/07/01 12:32:13;;;;;;;1.33;0.75;;;;;;;;;;4834333;29;20145;-73
2022/07/01 12:34:49;;;;;;;0.75;0.45;;;;;;;;;;4843856;29;20045;-74
2022/07/01 12:37:16;;;;;;;1.58;0.50;;;;;;;;;;4837180;29;20074;-73
2022/07/01 12:39:57;;;;;;;1.65;0.70;;;;;;;;;;4840311;29;20105;-73
2022/07/01 12:42:37;;;;;;;1.58;0.70;;;;;;;;;;4839148;29;20046;-73
2022/07/01 12:45:05;;;;;;;1.08;0.47;;;;;;;;;;4839380;29;20044;-72
2022/07/01 12:47:36;;;;;;;1.15;0.35;;;;;;;;;;4841302;29;20065;-72
2022/07/01 12:50:23;;;;;;;1.90;0.53;;;;;;;;;;4836754;29;20038;-72
2022/07/01 12:53:01;;;;;;;1.50;0.50;;;;;;;;;;4841348;29;20069;-73
2022/07/01 12:55:30;;;;;;;0.70;0.40;;;;;;;;;;4836076;29;20106;-72
2022/07/01 12:57:59;;;;;;;0.82;0.47;;;;;;;;;;4823702;29;20067;-72
2022/07/01 13:00:27;;;;;;;1.50;0.60;;;;;;;;;;4835554;29;20121;-72
2022/07/01 13:02:56;;;;;;;1.10;0.60;;;;;;;;;;4831701;29;20037;-73
2022/07/01 13:05:22;;;;;;;1.23;0.50;;;;;;;;;;4836086;29;20057;-73
2022/07/01 13:07:48;;;;;;;0.70;0.60;;;;;;;;;;4834274;29;20041;-74
2022/07/01 13:10:15;;;;;;;1.30;0.80;;;;;;;;;;4836048;29;20037;-73
2022/07/01 13:12:41;;;;;;;1.90;0.60;;;;;;;;;;4835867;29;20034;-73
2022/07/01 13:15:07;;;;;;;2.40;0.50;;;;;;;;;;4835949;29;20463;-72
2022/07/01 13:17:32;;;;;;;0.93;0.55;;;;;;;;;;4817691;29;20038;-70
2022/07/01 13:19:57;;;;;;;0.57;0.57;;;;;;;;;;4831834;29;20120;-74
2022/07/01 13:22:23;;;;;;;1.08;0.55;;;;;;;;;;4838474;29;20539;-72
2022/07/01 13:24:48;;;;;;;2.00;0.60;;;;;;;;;;4832844;29;20033;-73
2022/07/01 13:27:13;;;;;;;2.17;0.70;;;;;;;;;;4837606;29;20082;-73
2022/07/01 13:29:39;;;;;;;5.00;0.80;;;;;;;;;;4837912;29;20533;-73
2022/07/01 13:32:05;;;;;;;1.13;0.60;;;;;;;;;;4835925;29;20094;-72
2022/07/01 13:34:32;;;;;;;1.88;0.55;;;;;;;;;;4845156;29;20045;-73
2022/07/01 13:36:58;;;;;;;0.70;0.40;;;;;;;;;;4842671;29;20025;-73
2022/07/01 13:39:23;;;;;;;1.08;0.60;;;;;;;;;;4838984;29;20406;-71
2022/07/01 13:41:49;;;;;;;1.55;0.60;;;;;;;;;;4837470;29;20191;-74
2022/07/01 13:44:14;;;;;;;1.85;0.60;;;;;;;;;;4834985;29;20042;-72
2022/07/01 13:46:40;;;;;;;1.90;0.55;;;;;;;;;;4834321;29;20038;-71
2022/07/01 13:49:07;;;;;;;0.90;0.60;;;;;;;;;;4837044;29;20090;-72
2022/07/01 13:51:33;;;;;;;0.77;0.47;;;;;;;;;;4838959;29;20068;-70
2022/07/01 13:53:58;;;;;;;1.30;0.68;;;;;;;;;;4840406;29;20041;-73
2022/07/01 13:56:25;;;;;;;1.50;0.60;;;;;;;;;;4841500;29;20090;-73
2022/07/01 13:58:50;;;;;;;1.15;0.52;;;;;;;;;;4840207;29;20069;-72
2022/07/01 14:01:17;;;;;;;1.02;0.40;;;;;;;;;;4841370;29;20068;-74
2022/07/01 14:03:43;;;;;;;2.60;0.50;;;;;;;;;;4840030;29;20089;-74
2022/07/01 14:06:08;;;;;;;5.20;0.47;;;;;;;;;;4835421;29;20665;-73
2022/07/01 14:08:34;;;;;;;0.77;0.50;;;;;;;;;;4839576;29;20137;-73
2022/07/01 14:10:59;;;;;;;3.60;0.43;;;;;;;;;;4837394;29;20057;-73
2022/07/01 14:13:25;;;;;;;2.45;0.60;;;;;;;;;;4840367;29;20045;-74
2022/07/01 14:15:51;;;;;;;0.60;0.40;;;;;;;;;;4839020;29;20042;-73
2022/07/01 14:18:16;;;;;;;2.67;0.40;;;;;;;;;;4838603;29;20061;-75
2022/07/01 14:20:42;;;;;;;2.17;0.43;;;;;;;;;;4840705;29;20570;-74
2022/07/01 14:23:07;;;;;;;2.25;0.60;;;;;;;;;;4843963;29;20048;-74
2022/07/01 14:25:33;;;;;;;0.40;0.40;;;;;;;;;;4837234;29;20482;-74
2022/07/01 14:27:59;;;;;;;2.20;0.45;;;;;;;;;;4836121;29;20157;-72
2022/07/01 14:30:24;;;;;;;4.43;0.55;;;;;;;;;;4840062;29;20089;-73
2022/07/01 14:32:50;;;;;;;1.00;0.43;;;;;;;;;;4845119;29;20045;-72
2022/07/01 14:35:15;;;;;;;2.00;0.40;;;;;;;;;;4846258;29;20155;-72
2022/07/01 14:37:43;;;;;;;2.15;0.60;;;;;;;;;;4845591;29;20046;-71
2022/07/01 14:40:10;;;;;;;1.15;0.60;;;;;;;;;;4846758;29;20028;-74
2022/07/01 14:42:35;;;;;;;0.50;0.50;;;;;;;;;;4843366;29;20033;-73
2022/07/01 14:45:02;;;;;;;1.15;0.60;;;;;;;;;;4852048;29;20116;-73
2022/07/01 14:47:28;;;;;;;3.17;0.88;;;;;;;;;;4839786;29;20052;-73
2022/07/01 14:49:53;;;;;;;3.78;0.70;;;;;;;;;;4848374;29;20042;-73
2022/07/01 14:52:21;;;;;;;2.08;0.60;;;;;;;;;;4841272;29;20197;-73
2022/07/01 14:54:47;;;;;;;1.42;0.50;;;;;;;;;;4845117;29;20029;-74
2022/07/01 14:57:12;;;;;;;1.98;0.80;;;;;;;;;;4840954;29;20049;-74
2022/07/01 14:59:38;;;;;;;2.75;0.70;;;;;;;;;;4839175;29;20045;-73